createdAt,value
2022-10-06T00:00:01.997Z,1000.95
2022-10-06T00:01:02.032Z,1000.92
2022-10-06T00:02:01.974Z,1000.97
2022-10-06T00:03:02.004Z,1001.03
2022-10-06T00:04:01.948Z,1001.06
2022-10-06T00:05:01.931Z,1001.03
2022-10-06T00:07:01.905Z,1001.08
2022-10-06T00:08:01.914Z,1001.12
2022-10-06T00:09:01.879Z,1001.05
2022-10-06T00:10:01.864Z,1001.05
2022-10-06T00:11:01.855Z,1001.12
2022-10-06T00:12:01.837Z,1001.12
2022-10-06T00:13:01.826Z,1001.13
2022-10-06T00:14:01.811Z,1001.17
2022-10-06T00:15:01.801Z,1001.21
2022-10-06T00:16:01.840Z,1001.23
2022-10-06T00:18:01.759Z,1001.27
2022-10-06T00:19:01.748Z,1001.31
2022-10-06T00:20:01.734Z,1001.22
2022-10-06T00:21:01.734Z,1001.26
2022-10-06T00:22:01.707Z,1001.24
2022-10-06T00:23:01.694Z,1001.26
2022-10-06T00:24:01.703Z,1001.29
2022-10-06T00:25:01.668Z,1001.27
2022-10-06T00:26:01.654Z,1001.29
2022-10-06T00:27:01.641Z,1001.27
2022-10-06T00:29:01.614Z,1001.38
2022-10-06T00:30:01.599Z,1001.41
2022-10-06T00:31:01.666Z,1001.47
2022-10-06T00:32:01.574Z,1001.46
2022-10-06T00:33:01.573Z,1001.56
2022-10-06T00:34:01.547Z,1001.64
2022-10-06T00:35:01.548Z,1001.71
2022-10-06T00:36:01.521Z,1001.77
2022-10-06T00:37:01.509Z,1001.84
2022-10-06T00:38:01.493Z,1001.86
2022-10-06T00:40:01.490Z,1002.01
2022-10-06T00:41:01.455Z,1001.94
2022-10-06T00:42:01.442Z,1001.98
2022-10-06T00:43:01.429Z,1001.92
2022-10-06T00:44:01.414Z,1001.98
2022-10-06T00:45:01.402Z,1001.96
2022-10-06T00:46:01.427Z,1002.04
2022-10-06T00:47:01.376Z,1002.10
2022-10-06T00:48:01.361Z,1002.17
2022-10-06T00:49:01.353Z,1002.15
2022-10-06T00:51:01.326Z,1002.31
2022-10-06T00:52:01.310Z,1002.23
2022-10-06T00:53:01.297Z,1002.29
2022-10-06T00:54:01.281Z,1002.33
2022-10-06T00:55:01.274Z,1002.30
2022-10-06T00:56:01.278Z,1002.26
2022-10-06T00:57:01.245Z,1002.37
2022-10-06T00:58:01.229Z,1002.43
2022-10-06T00:59:01.217Z,1002.56
2022-10-06T01:00:01.203Z,1002.57
2022-10-06T01:02:01.177Z,1002.54
2022-10-06T01:03:01.242Z,1002.70
2022-10-06T01:04:01.152Z,1002.66
2022-10-06T01:05:01.139Z,1002.72
2022-10-06T01:06:01.127Z,1002.76
2022-10-06T01:07:01.113Z,1002.71
2022-10-06T01:08:01.098Z,1002.72
2022-10-06T01:09:01.088Z,1002.76
2022-10-06T01:10:01.077Z,1002.82
2022-10-06T01:11:01.060Z,1002.83
2022-10-06T01:13:01.038Z,1002.62
2022-10-06T01:14:01.020Z,1002.77
2022-10-06T01:15:01.008Z,1002.66
2022-10-06T01:16:01.073Z,1002.84
2022-10-06T01:17:00.981Z,1002.80
2022-10-06T01:18:00.968Z,1002.84
2022-10-06T01:19:00.960Z,1002.80
2022-10-06T01:20:00.941Z,1002.91
2022-10-06T01:21:00.930Z,1002.95
2022-10-06T01:22:00.915Z,1002.85
2022-10-06T01:24:00.888Z,1002.92
2022-10-06T01:25:00.876Z,1002.99
2022-10-06T01:26:00.862Z,1002.95
2022-10-06T01:27:00.850Z,1003.01
2022-10-06T01:28:00.930Z,1003.09
2022-10-06T01:29:00.826Z,1003.04
2022-10-06T01:30:00.810Z,1003.07
2022-10-06T01:31:00.864Z,1003.04
2022-10-06T01:32:00.782Z,1003.11
2022-10-06T01:33:00.770Z,1003.09
2022-10-06T01:35:00.744Z,1003.08
2022-10-06T01:36:00.731Z,1003.13
2022-10-06T01:37:00.717Z,1003.19
2022-10-06T01:38:00.704Z,1003.18
2022-10-06T01:39:00.691Z,1003.22
2022-10-06T01:40:00.676Z,1003.20
2022-10-06T01:41:00.664Z,1003.13
2022-10-06T01:42:00.650Z,1003.22
2022-10-06T01:43:00.638Z,1003.22
2022-10-06T01:44:00.645Z,1003.23
2022-10-06T01:46:00.720Z,1003.30
2022-10-06T01:47:00.586Z,1003.21
2022-10-06T01:48:00.571Z,1003.34
2022-10-06T01:49:00.560Z,1003.32
2022-10-06T01:50:00.545Z,1003.38
2022-10-06T01:51:00.533Z,1003.41
2022-10-06T01:52:00.516Z,1003.40
2022-10-06T01:53:00.505Z,1003.42
2022-10-06T01:54:00.489Z,1003.41
2022-10-06T01:55:00.479Z,1003.48
2022-10-06T01:57:00.454Z,1003.39
2022-10-06T01:58:00.437Z,1003.57
2022-10-06T01:59:00.424Z,1003.63
2022-10-06T02:00:00.488Z,1003.61
2022-10-06T02:01:00.401Z,1003.66
2022-10-06T02:02:00.413Z,1003.67
2022-10-06T02:03:00.371Z,1003.72
2022-10-06T02:04:00.433Z,1003.71
2022-10-06T02:05:00.345Z,1003.70
2022-10-06T02:06:00.370Z,1003.65
2022-10-06T02:09:00.291Z,1003.66
2022-10-06T02:10:00.286Z,1003.76
2022-10-06T02:11:00.264Z,1003.68
2022-10-06T02:12:00.249Z,1003.67
2022-10-06T02:13:00.237Z,1003.59
2022-10-06T02:14:00.227Z,1003.58
2022-10-06T02:15:00.210Z,1003.62
2022-10-06T02:16:00.355Z,1003.62
2022-10-06T02:17:00.185Z,1003.61
2022-10-06T02:19:00.156Z,1003.70
2022-10-06T02:20:00.147Z,1003.68
2022-10-06T02:21:00.127Z,1003.70
2022-10-06T02:22:00.114Z,1003.75
2022-10-06T02:23:00.101Z,1003.75
2022-10-06T02:24:00.088Z,1003.78
2022-10-06T02:25:00.087Z,1003.78
2022-10-06T02:26:00.072Z,1003.78
2022-10-06T02:27:00.049Z,1003.79
2022-10-06T02:28:00.103Z,1003.72
2022-10-06T02:30:00.004Z,1003.81
2022-10-06T02:31:00.020Z,1003.71
2022-10-06T02:32:00.003Z,1003.67
2022-10-06T02:32:59.965Z,1003.61
2022-10-06T02:33:59.952Z,1003.72
2022-10-06T02:34:59.939Z,1003.73
2022-10-06T02:35:59.926Z,1003.78
2022-10-06T02:36:59.913Z,1003.73
2022-10-06T02:37:59.896Z,1003.78
2022-10-06T02:38:59.886Z,1003.82
2022-10-06T02:40:59.858Z,1003.80
2022-10-06T02:41:59.844Z,1003.81
2022-10-06T02:42:59.834Z,1003.80
2022-10-06T02:43:59.819Z,1003.86
2022-10-06T02:44:59.804Z,1003.81
2022-10-06T02:45:59.790Z,1003.83
2022-10-06T02:46:59.778Z,1003.95
2022-10-06T02:47:59.789Z,1003.95
2022-10-06T02:48:59.751Z,1003.94
2022-10-06T02:49:59.739Z,1003.99
2022-10-06T02:51:59.714Z,1004.03
2022-10-06T02:52:59.697Z,1004.08
2022-10-06T02:53:59.689Z,1004.12
2022-10-06T02:54:59.672Z,1004.09
2022-10-06T02:55:59.659Z,1004.07
2022-10-06T02:56:59.646Z,1004.16
2022-10-06T02:57:59.633Z,1004.14
2022-10-06T02:58:59.618Z,1004.19
2022-10-06T02:59:59.605Z,1004.15
2022-10-06T03:00:59.600Z,1004.20
2022-10-06T03:02:59.696Z,1004.20
2022-10-06T03:03:59.575Z,1004.19
2022-10-06T03:04:59.537Z,1004.21
2022-10-06T03:05:59.527Z,1004.19
2022-10-06T03:06:59.510Z,1004.23
2022-10-06T03:07:59.498Z,1004.26
2022-10-06T03:08:59.483Z,1004.27
2022-10-06T03:09:59.472Z,1004.37
2022-10-06T03:10:59.456Z,1004.35
2022-10-06T03:11:59.444Z,1004.34
2022-10-06T03:13:59.421Z,1004.38
2022-10-06T03:14:59.402Z,1004.37
2022-10-06T03:15:59.501Z,1004.42
2022-10-06T03:16:59.375Z,1004.38
2022-10-06T03:17:59.363Z,1004.45
2022-10-06T03:18:59.351Z,1004.42
2022-10-06T03:19:59.393Z,1004.41
2022-10-06T03:20:59.324Z,1004.37
2022-10-06T03:21:59.310Z,1004.45
2022-10-06T03:22:59.295Z,1004.47
2022-10-06T03:24:59.271Z,1004.48
2022-10-06T03:25:59.257Z,1004.54
2022-10-06T03:26:59.245Z,1004.51
2022-10-06T03:27:59.294Z,1004.49
2022-10-06T03:28:59.217Z,1004.58
2022-10-06T03:29:59.210Z,1004.62
2022-10-06T03:30:59.204Z,1004.68
2022-10-06T03:31:59.177Z,1004.73
2022-10-06T03:32:59.164Z,1004.69
2022-10-06T03:33:59.150Z,1004.59
2022-10-06T03:35:59.148Z,1004.69
2022-10-06T03:36:59.112Z,1004.71
2022-10-06T03:37:59.113Z,1004.66
2022-10-06T03:38:59.083Z,1004.69
2022-10-06T03:39:59.073Z,1004.64
2022-10-06T03:40:59.057Z,1004.63
2022-10-06T03:41:59.047Z,1004.65
2022-10-06T03:42:59.031Z,1004.73
2022-10-06T03:43:59.019Z,1004.81
2022-10-06T03:44:59.006Z,1004.84
2022-10-06T03:46:59.060Z,1004.86
2022-10-06T03:47:58.965Z,1004.88
2022-10-06T03:48:58.950Z,1004.87
2022-10-06T03:49:58.938Z,1004.85
2022-10-06T03:50:58.924Z,1004.85
2022-10-06T03:51:58.936Z,1004.93
2022-10-06T03:52:58.896Z,1004.99
2022-10-06T03:53:58.887Z,1005.05
2022-10-06T03:54:58.870Z,1005.07
2022-10-06T03:55:58.858Z,1005.01
2022-10-06T03:57:58.832Z,1005.04
2022-10-06T03:58:58.818Z,1005.15
2022-10-06T03:59:58.806Z,1005.08
2022-10-06T04:00:58.856Z,1005.12
2022-10-06T04:01:58.865Z,1005.14
2022-10-06T04:02:58.765Z,1005.19
2022-10-06T04:03:58.755Z,1005.27
2022-10-06T04:04:58.768Z,1005.33
2022-10-06T04:05:58.736Z,1005.32
2022-10-06T04:06:58.713Z,1005.40
2022-10-06T04:08:58.686Z,1005.54
2022-10-06T04:09:58.675Z,1005.50
2022-10-06T04:10:58.660Z,1005.51
2022-10-06T04:11:58.650Z,1005.53
2022-10-06T04:12:58.634Z,1005.61
2022-10-06T04:13:58.623Z,1005.62
2022-10-06T04:15:00.207Z,1005.59
2022-10-06T04:15:58.652Z,1005.65
2022-10-06T04:16:58.582Z,1005.66
2022-10-06T04:17:58.570Z,1005.67
2022-10-06T04:19:58.546Z,1005.75
2022-10-06T04:20:58.529Z,1005.75
2022-10-06T04:21:58.518Z,1005.75
2022-10-06T04:22:58.504Z,1005.76
2022-10-06T04:23:58.523Z,1005.81
2022-10-06T04:24:58.476Z,1005.83
2022-10-06T04:25:58.465Z,1005.76
2022-10-06T04:26:58.450Z,1005.78
2022-10-06T04:27:58.491Z,1005.76
2022-10-06T04:28:58.426Z,1005.82
2022-10-06T04:30:58.400Z,1005.82
2022-10-06T04:31:58.441Z,1005.82
2022-10-06T04:32:58.371Z,1005.81
2022-10-06T04:33:58.360Z,1005.84
2022-10-06T04:34:58.346Z,1005.90
2022-10-06T04:35:58.334Z,1005.95
2022-10-06T04:36:58.319Z,1005.97
2022-10-06T04:37:58.309Z,1005.99
2022-10-06T04:38:58.294Z,1005.98
2022-10-06T04:39:58.313Z,1006.04
2022-10-06T04:41:58.254Z,1006.05
2022-10-06T04:42:58.240Z,1006.00
2022-10-06T04:43:58.230Z,1006.09
2022-10-06T04:44:58.214Z,1006.10
2022-10-06T04:45:58.257Z,1006.14
2022-10-06T04:46:58.255Z,1006.10
2022-10-06T04:47:58.176Z,1006.13
2022-10-06T04:48:58.161Z,1006.12
2022-10-06T04:49:58.150Z,1006.15
2022-10-06T04:50:58.135Z,1006.14
2022-10-06T04:52:58.109Z,1006.19
2022-10-06T04:53:58.096Z,1006.22
2022-10-06T04:54:58.081Z,1006.26
2022-10-06T04:55:58.093Z,1006.30
2022-10-06T04:56:58.062Z,1006.20
2022-10-06T04:57:58.044Z,1006.28
2022-10-06T04:58:58.028Z,1006.30
2022-10-06T05:00:02.858Z,1006.36
2022-10-06T05:00:58.042Z,1006.38
2022-10-06T05:01:58.038Z,1006.44
2022-10-06T05:03:57.964Z,1006.41
2022-10-06T05:04:57.949Z,1006.45
2022-10-06T05:05:57.937Z,1006.52
2022-10-06T05:06:57.923Z,1006.53
2022-10-06T05:07:57.910Z,1006.58
2022-10-06T05:08:57.898Z,1006.52
2022-10-06T05:09:57.888Z,1006.51
2022-10-06T05:10:57.871Z,1006.55
2022-10-06T05:11:57.885Z,1006.61
2022-10-06T05:12:57.864Z,1006.60
2022-10-06T05:14:57.819Z,1006.65
2022-10-06T05:15:57.954Z,1006.62
2022-10-06T05:16:57.792Z,1006.65
2022-10-06T05:17:57.783Z,1006.66
2022-10-06T05:18:57.766Z,1006.65
2022-10-06T05:20:57.743Z,1006.70
2022-10-06T05:21:57.728Z,1006.73
2022-10-06T05:22:57.714Z,1006.77
2022-10-06T05:23:57.704Z,1006.75
2022-10-06T05:25:57.674Z,1006.84
2022-10-06T05:27:01.590Z,1006.82
2022-10-06T05:27:57.708Z,1006.85
2022-10-06T05:28:57.632Z,1006.90
2022-10-06T05:29:57.624Z,1006.85
2022-10-06T05:30:57.606Z,1006.89
2022-10-06T05:31:57.712Z,1006.88
2022-10-06T05:32:57.580Z,1006.91
2022-10-06T05:33:57.567Z,1006.85
2022-10-06T05:34:57.555Z,1006.89
2022-10-06T05:36:57.528Z,1006.96
2022-10-06T05:37:57.518Z,1007.00
2022-10-06T05:38:57.501Z,1006.95
2022-10-06T05:39:57.490Z,1006.95
2022-10-06T05:40:57.475Z,1006.98
2022-10-06T05:41:57.462Z,1006.98
2022-10-06T05:42:57.450Z,1007.01
2022-10-06T05:43:57.467Z,1007.00
2022-10-06T05:44:57.421Z,1007.06
2022-10-06T05:45:57.512Z,1007.11
2022-10-06T05:47:57.385Z,1007.10
2022-10-06T05:48:57.369Z,1007.12
2022-10-06T05:49:57.369Z,1007.11
2022-10-06T05:50:57.343Z,1007.18
2022-10-06T05:51:57.331Z,1007.14
2022-10-06T05:52:57.316Z,1007.16
2022-10-06T05:53:57.305Z,1007.20
2022-10-06T05:54:57.289Z,1007.20
2022-10-06T05:55:57.286Z,1007.24
2022-10-06T05:56:57.265Z,1007.30
2022-10-06T05:58:57.281Z,1007.39
2022-10-06T05:59:57.249Z,1007.37
2022-10-06T06:00:57.212Z,1007.43
2022-10-06T06:01:57.323Z,1007.47
2022-10-06T06:02:57.282Z,1007.49
2022-10-06T06:03:57.187Z,1007.50
2022-10-06T06:04:57.159Z,1007.46
2022-10-06T06:05:57.149Z,1007.49
2022-10-06T06:06:57.131Z,1007.49
2022-10-06T06:07:57.122Z,1007.55
2022-10-06T06:09:57.115Z,1007.52
2022-10-06T06:10:57.082Z,1007.57
2022-10-06T06:11:57.069Z,1007.61
2022-10-06T06:12:57.054Z,1007.65
2022-10-06T06:13:57.043Z,1007.68
2022-10-06T06:14:57.028Z,1007.68
2022-10-06T06:15:57.039Z,1007.71
2022-10-06T06:16:57.066Z,1007.75
2022-10-06T06:17:57.597Z,1007.79
2022-10-06T06:18:56.977Z,1007.88
2022-10-06T06:20:56.948Z,1007.91
2022-10-06T06:21:57.964Z,1007.81
2022-10-06T06:22:56.921Z,1007.84
2022-10-06T06:23:56.911Z,1007.86
2022-10-06T06:24:56.899Z,1007.88
2022-10-06T06:26:01.967Z,1007.91
2022-10-06T06:26:56.870Z,1007.94
2022-10-06T06:27:56.895Z,1007.96
2022-10-06T06:28:56.845Z,1007.93
2022-10-06T06:29:56.831Z,1007.91
2022-10-06T06:31:56.828Z,1007.88
2022-10-06T06:32:56.791Z,1007.91
2022-10-06T06:33:56.779Z,1007.81
2022-10-06T06:35:56.751Z,1007.79
2022-10-06T06:36:56.739Z,1007.77
2022-10-06T06:37:56.727Z,1007.84
2022-10-06T06:38:56.710Z,1007.84
2022-10-06T06:39:56.700Z,1007.91
2022-10-06T06:40:56.684Z,1008.01
2022-10-06T06:42:56.660Z,1008.00
2022-10-06T06:43:56.649Z,1007.99
2022-10-06T06:44:56.642Z,1007.98
2022-10-06T06:45:56.727Z,1008.05
2022-10-06T06:46:56.613Z,1008.02
2022-10-06T06:47:56.677Z,1008.05
2022-10-06T06:48:56.578Z,1008.05
2022-10-06T06:49:56.567Z,1008.14
2022-10-06T06:50:56.552Z,1008.10
2022-10-06T06:51:56.540Z,1008.17
2022-10-06T06:53:56.515Z,1008.14
2022-10-06T06:54:56.501Z,1008.12
2022-10-06T06:55:56.489Z,1008.21
2022-10-06T06:56:56.475Z,1008.13
2022-10-06T06:57:56.463Z,1008.22
2022-10-06T06:58:56.448Z,1008.20
2022-10-06T06:59:56.439Z,1008.17
2022-10-06T07:00:56.475Z,1008.21
2022-10-06T07:01:56.449Z,1008.20
2022-10-06T07:02:56.395Z,1008.26
2022-10-06T07:04:56.372Z,1008.24
2022-10-06T07:05:56.355Z,1008.18
2022-10-06T07:06:56.345Z,1008.21
2022-10-06T07:07:56.330Z,1008.30
2022-10-06T07:08:56.318Z,1008.36
2022-10-06T07:09:56.305Z,1008.35
2022-10-06T07:10:56.292Z,1008.30
2022-10-06T07:11:56.288Z,1008.17
2022-10-06T07:12:56.266Z,1008.26
2022-10-06T07:13:56.253Z,1008.23
2022-10-06T07:15:56.309Z,1008.41
2022-10-06T07:16:56.213Z,1008.41
2022-10-06T07:17:56.198Z,1008.37
2022-10-06T07:18:56.186Z,1008.33
2022-10-06T07:19:56.193Z,1008.39
2022-10-06T07:20:56.161Z,1008.36
2022-10-06T07:21:56.146Z,1008.45
2022-10-06T07:22:56.135Z,1008.39
2022-10-06T07:23:56.120Z,1008.31
2022-10-06T07:24:56.109Z,1008.44
2022-10-06T07:26:56.083Z,1008.45
2022-10-06T07:27:56.150Z,1008.48
2022-10-06T07:28:56.056Z,1008.51
2022-10-06T07:29:56.656Z,1008.54
2022-10-06T07:30:56.089Z,1008.41
2022-10-06T07:31:56.015Z,1008.43
2022-10-06T07:32:56.005Z,1008.50
2022-10-06T07:33:55.991Z,1008.52
2022-10-06T07:34:56.340Z,1008.62
2022-10-06T07:35:56.001Z,1008.63
2022-10-06T07:37:55.940Z,1008.64
2022-10-06T07:38:55.928Z,1008.65
2022-10-06T07:39:55.915Z,1008.58
2022-10-06T07:41:17.919Z,1008.57
2022-10-06T07:41:57.888Z,1008.65
2022-10-06T07:42:55.877Z,1008.77
2022-10-06T07:43:55.864Z,1008.85
2022-10-06T07:44:56.204Z,1008.79
2022-10-06T07:45:55.878Z,1008.81
2022-10-06T07:46:55.829Z,1008.83
2022-10-06T07:48:55.800Z,1008.84
2022-10-06T07:49:55.785Z,1008.86
2022-10-06T07:50:55.778Z,1008.84
2022-10-06T07:51:55.790Z,1008.80
2022-10-06T07:52:55.748Z,1008.86
2022-10-06T07:53:55.739Z,1008.85
2022-10-06T07:54:56.351Z,1008.90
2022-10-06T07:55:55.711Z,1008.84
2022-10-06T07:56:55.703Z,1008.89
2022-10-06T07:57:55.683Z,1008.91
2022-10-06T07:59:59.139Z,1008.97
2022-10-06T08:00:55.699Z,1008.95
2022-10-06T08:01:55.816Z,1008.93
2022-10-06T08:02:55.665Z,1008.99
2022-10-06T08:03:55.610Z,1009.00
2022-10-06T08:04:56.182Z,1008.95
2022-10-06T08:05:55.584Z,1008.95
2022-10-06T08:06:55.573Z,1008.94
2022-10-06T08:07:55.583Z,1009.00
2022-10-06T08:08:55.548Z,1009.00
2022-10-06T08:10:55.525Z,1009.01
2022-10-06T08:11:55.511Z,1008.90
2022-10-06T08:12:55.497Z,1008.88
2022-10-06T08:13:55.485Z,1008.91
2022-10-06T08:14:55.804Z,1008.85
2022-10-06T08:15:55.483Z,1008.87
2022-10-06T08:16:55.448Z,1008.91
2022-10-06T08:17:55.429Z,1008.94
2022-10-06T08:18:55.429Z,1008.98
2022-10-06T08:19:55.404Z,1008.98
2022-10-06T08:21:55.380Z,1009.01
2022-10-06T08:22:55.371Z,1008.97
2022-10-06T08:23:55.377Z,1009.00
2022-10-06T08:25:05.819Z,1009.10
2022-10-06T08:25:55.330Z,1009.02
2022-10-06T08:26:55.318Z,1009.11
2022-10-06T08:27:55.369Z,1009.08
2022-10-06T08:28:55.290Z,1009.10
2022-10-06T08:29:55.291Z,1009.08
2022-10-06T08:30:55.264Z,1009.17
2022-10-06T08:32:55.243Z,1009.23
2022-10-06T08:34:55.617Z,1009.18
2022-10-06T08:35:55.201Z,1009.20
2022-10-06T08:37:15.864Z,1009.11
2022-10-06T08:37:55.178Z,1009.32
2022-10-06T08:38:55.166Z,1009.26
2022-10-06T08:39:55.184Z,1009.29
2022-10-06T08:40:55.141Z,1009.29
2022-10-06T08:41:55.124Z,1009.39
2022-10-06T08:43:55.101Z,1009.33
2022-10-06T08:44:55.466Z,1009.37
2022-10-06T08:46:55.069Z,1009.38
2022-10-06T08:47:55.052Z,1009.34
2022-10-06T08:48:55.042Z,1009.39
2022-10-06T08:49:55.667Z,1009.37
2022-10-06T08:50:55.015Z,1009.48
2022-10-06T08:51:54.998Z,1009.46
2022-10-06T08:52:54.989Z,1009.40
2022-10-06T08:54:54.964Z,1009.42
2022-10-06T08:55:54.971Z,1009.54
2022-10-06T08:56:54.937Z,1009.51
2022-10-06T08:57:54.922Z,1009.53
2022-10-06T08:58:54.911Z,1009.55
2022-10-06T08:59:55.222Z,1009.43
2022-10-06T09:00:54.957Z,1009.50
2022-10-06T09:01:43.659Z,1009.49
2022-10-06T09:02:43.543Z,1009.56
2022-10-06T09:03:43.484Z,1009.49
2022-10-06T09:05:43.461Z,1009.53
2022-10-06T09:06:43.445Z,1009.61
2022-10-06T09:07:43.436Z,1009.57
2022-10-06T09:08:43.420Z,1009.56
2022-10-06T09:09:43.408Z,1009.55
2022-10-06T09:10:43.397Z,1009.51
2022-10-06T09:11:43.456Z,1009.59
2022-10-06T09:12:43.371Z,1009.57
2022-10-06T09:13:43.359Z,1009.69
2022-10-06T09:14:43.346Z,1009.68
2022-10-06T09:16:43.320Z,1009.78
2022-10-06T09:17:43.310Z,1009.74
2022-10-06T09:19:43.286Z,1009.65
2022-10-06T09:20:43.280Z,1009.73
2022-10-06T09:21:43.259Z,1009.68
2022-10-06T09:22:43.364Z,1009.75
2022-10-06T09:23:43.242Z,1009.73
2022-10-06T09:24:47.207Z,1009.73
2022-10-06T09:25:43.210Z,1009.74
2022-10-06T09:27:43.206Z,1009.74
2022-10-06T09:28:43.240Z,1009.81
2022-10-06T09:29:43.165Z,1009.78
2022-10-06T09:30:43.144Z,1009.78
2022-10-06T09:31:43.188Z,1009.75
2022-10-06T09:32:43.119Z,1009.84
2022-10-06T09:33:43.110Z,1009.83
2022-10-06T09:34:43.098Z,1009.79
2022-10-06T09:35:43.086Z,1009.79
2022-10-06T09:36:43.071Z,1009.80
2022-10-06T09:38:43.045Z,1009.77
2022-10-06T09:39:43.037Z,1009.81
2022-10-06T09:40:43.020Z,1009.87
2022-10-06T09:41:43.011Z,1009.85
2022-10-06T09:42:42.994Z,1009.89
2022-10-06T09:43:43.008Z,1009.90
2022-10-06T09:44:42.969Z,1009.81
2022-10-06T09:45:42.959Z,1009.89
2022-10-06T09:46:42.944Z,1009.85
2022-10-06T09:47:42.933Z,1009.79
2022-10-06T09:49:42.922Z,1009.95
2022-10-06T09:50:42.894Z,1009.92
2022-10-06T09:51:42.882Z,1009.96
2022-10-06T09:52:42.871Z,1009.89
2022-10-06T09:53:42.858Z,1009.92
2022-10-06T09:54:42.844Z,1009.88
2022-10-06T09:55:42.833Z,1009.92
2022-10-06T09:56:42.819Z,1009.94
2022-10-06T09:57:42.813Z,1009.96
2022-10-06T09:58:42.797Z,1009.92
2022-10-06T10:00:42.880Z,1009.94
2022-10-06T10:01:42.763Z,1009.97
2022-10-06T10:02:42.846Z,1010.01
2022-10-06T10:03:51.468Z,1009.96
2022-10-06T10:04:42.725Z,1009.97
2022-10-06T10:05:42.714Z,1009.95
2022-10-06T10:06:42.701Z,1009.99
2022-10-06T10:07:42.689Z,1009.92
2022-10-06T10:08:42.700Z,1009.93
2022-10-06T10:09:42.667Z,1009.88
2022-10-06T10:11:42.642Z,1009.98
2022-10-06T10:12:42.629Z,1009.95
2022-10-06T10:13:42.619Z,1010.01
2022-10-06T10:14:42.606Z,1010.01
2022-10-06T10:15:42.663Z,1009.97
2022-10-06T10:16:42.582Z,1009.93
2022-10-06T10:17:42.571Z,1010.00
2022-10-06T10:18:42.559Z,1009.95
2022-10-06T10:19:42.554Z,1009.91
2022-10-06T10:20:42.535Z,1009.87
2022-10-06T10:22:42.511Z,1009.77
2022-10-06T10:23:42.502Z,1009.90
2022-10-06T10:24:42.489Z,1009.92
2022-10-06T10:25:42.477Z,1009.84
2022-10-06T10:26:42.465Z,1009.96
2022-10-06T10:27:42.455Z,1010.04
2022-10-06T10:28:42.539Z,1009.76
2022-10-06T10:29:42.434Z,1009.99
2022-10-06T10:30:42.417Z,1009.96
2022-10-06T10:31:42.544Z,1010.01
2022-10-06T10:33:49.696Z,1010.00
2022-10-06T10:34:44.370Z,1009.96
2022-10-06T10:35:42.363Z,1009.92
2022-10-06T10:36:42.351Z,1009.91
2022-10-06T10:37:42.340Z,1009.96
2022-10-06T10:38:42.326Z,1009.97
2022-10-06T10:39:42.320Z,1009.95
2022-10-06T10:40:42.304Z,1009.92
2022-10-06T10:41:42.296Z,1009.93
2022-10-06T10:42:42.284Z,1009.92
2022-10-06T10:44:42.262Z,1009.94
2022-10-06T10:45:42.254Z,1009.90
2022-10-06T10:46:42.295Z,1009.91
2022-10-06T10:47:42.255Z,1009.90
2022-10-06T10:48:42.225Z,1009.87
2022-10-06T10:49:42.208Z,1009.89
2022-10-06T10:50:42.196Z,1009.85
2022-10-06T10:51:42.184Z,1009.84
2022-10-06T10:52:42.177Z,1009.86
2022-10-06T10:53:42.805Z,1009.85
2022-10-06T10:55:42.153Z,1009.79
2022-10-06T10:56:42.131Z,1009.78
2022-10-06T10:57:42.121Z,1009.81
2022-10-06T10:58:42.109Z,1009.83
2022-10-06T10:59:42.100Z,1009.78
2022-10-06T11:00:42.114Z,1009.72
2022-10-06T11:01:42.123Z,1009.73
2022-10-06T11:02:42.063Z,1009.78
2022-10-06T11:03:42.076Z,1009.75
2022-10-06T11:04:42.044Z,1009.77
2022-10-06T11:06:42.016Z,1009.69
2022-10-06T11:07:42.007Z,1009.75
2022-10-06T11:08:41.993Z,1009.72
2022-10-06T11:09:41.986Z,1009.69
2022-10-06T11:10:41.970Z,1009.80
2022-10-06T11:11:41.961Z,1009.44
2022-10-06T11:12:41.948Z,1009.72
2022-10-06T11:13:41.946Z,1009.67
2022-10-06T11:14:41.925Z,1009.75
2022-10-06T11:15:41.920Z,1009.65
2022-10-06T11:17:41.899Z,1009.64
2022-10-06T11:18:41.880Z,1009.69
2022-10-06T11:19:41.892Z,1009.61
2022-10-06T11:20:41.858Z,1009.62
2022-10-06T11:21:41.848Z,1009.61
2022-10-06T11:22:41.839Z,1009.61
2022-10-06T11:23:41.830Z,1009.59
2022-10-06T11:24:41.817Z,1009.59
2022-10-06T11:25:41.808Z,1009.57
2022-10-06T11:26:41.793Z,1009.61
2022-10-06T11:28:41.833Z,1009.62
2022-10-06T11:29:41.759Z,1009.64
2022-10-06T11:30:41.746Z,1009.60
2022-10-06T11:31:41.778Z,1009.66
2022-10-06T11:32:41.726Z,1009.68
2022-10-06T11:33:41.715Z,1009.62
2022-10-06T11:34:41.715Z,1009.62
2022-10-06T11:35:41.725Z,1009.66
2022-10-06T11:36:41.683Z,1009.63
2022-10-06T11:37:41.673Z,1009.67
2022-10-06T11:39:41.649Z,1009.50
2022-10-06T11:40:41.636Z,1009.55
2022-10-06T11:41:41.628Z,1009.53
2022-10-06T11:42:41.615Z,1009.51
2022-10-06T11:43:41.605Z,1009.49
2022-10-06T11:44:41.591Z,1009.56
2022-10-06T11:45:41.663Z,1009.46
2022-10-06T11:46:45.193Z,1009.52
2022-10-06T11:47:41.559Z,1009.50
2022-10-06T11:48:41.547Z,1009.46
2022-10-06T11:50:41.524Z,1009.51
2022-10-06T11:51:41.538Z,1009.50
2022-10-06T11:52:41.501Z,1009.43
2022-10-06T11:53:41.491Z,1009.47
2022-10-06T11:54:41.478Z,1009.47
2022-10-06T11:55:41.465Z,1009.52
2022-10-06T11:56:41.457Z,1009.55
2022-10-06T11:57:41.441Z,1009.47
2022-10-06T11:58:42.575Z,1009.48
2022-10-06T11:59:41.421Z,1009.47
2022-10-06T12:01:41.421Z,1009.46
2022-10-06T12:02:41.570Z,1009.46
2022-10-06T12:03:41.376Z,1009.38
2022-10-06T12:04:41.364Z,1009.38
2022-10-06T12:05:57.354Z,1009.39
2022-10-06T12:06:43.366Z,1009.32
2022-10-06T12:07:41.328Z,1009.36
2022-10-06T12:08:41.318Z,1009.31
2022-10-06T12:09:41.303Z,1009.30
2022-10-06T12:10:41.295Z,1009.38
2022-10-06T12:12:41.274Z,1009.35
2022-10-06T12:17:41.206Z,1009.25
2022-10-06T12:18:41.213Z,1009.25
2022-10-06T12:19:41.181Z,1009.23
2022-10-06T12:20:41.170Z,1009.19
2022-10-06T12:21:41.158Z,1009.27
2022-10-06T12:23:41.131Z,1009.29
2022-10-06T12:24:41.125Z,1009.28
2022-10-06T12:25:41.109Z,1009.24
2022-10-06T12:26:41.100Z,1009.19
2022-10-06T12:27:41.086Z,1009.25
2022-10-06T12:28:41.114Z,1009.21
2022-10-06T12:29:41.063Z,1009.28
2022-10-06T12:30:41.086Z,1009.21
2022-10-06T12:31:41.058Z,1009.22
2022-10-06T12:32:41.029Z,1009.19
2022-10-06T12:34:41.006Z,1009.14
2022-10-06T12:35:40.992Z,1009.11
2022-10-06T12:36:44.849Z,1009.12
2022-10-06T12:37:40.969Z,1009.12
2022-10-06T12:38:40.978Z,1009.09
2022-10-06T12:39:40.948Z,1009.16
2022-10-06T12:40:40.934Z,1009.11
2022-10-06T12:41:40.920Z,1009.14
2022-10-06T12:42:40.907Z,1009.18
2022-10-06T12:43:40.901Z,1009.18
2022-10-06T12:45:45.677Z,1009.11
2022-10-06T12:46:40.933Z,1009.15
2022-10-06T12:47:40.845Z,1009.09
2022-10-06T12:48:40.834Z,1009.11
2022-10-06T12:49:40.822Z,1009.08
2022-10-06T12:50:40.813Z,1009.10
2022-10-06T12:51:40.805Z,1009.17
2022-10-06T12:52:40.786Z,1009.19
2022-10-06T12:53:40.771Z,1009.13
2022-10-06T12:54:40.786Z,1009.10
2022-10-06T12:56:40.738Z,1009.00
2022-10-06T12:57:40.724Z,1009.00
2022-10-06T12:58:40.712Z,1009.02
2022-10-06T12:59:40.699Z,1009.01
2022-10-06T13:00:40.689Z,1008.98
2022-10-06T13:01:40.744Z,1009.06
2022-10-06T13:02:40.733Z,1009.04
2022-10-06T13:03:40.650Z,1009.01
2022-10-06T13:49:03.951Z,1008.66
2022-10-06T13:50:04.251Z,1008.68
2022-10-06T13:51:03.926Z,1008.68
2022-10-06T13:52:03.914Z,1008.64
2022-10-06T13:53:03.899Z,1008.64
2022-10-06T13:54:03.886Z,1008.67
2022-10-06T13:55:04.136Z,1008.71
2022-10-06T13:56:03.861Z,1008.68
2022-10-06T13:57:03.850Z,1008.66
2022-10-06T13:58:06.852Z,1008.63
2022-10-06T14:00:03.862Z,1008.67
2022-10-06T14:01:03.859Z,1008.67
2022-10-06T14:02:03.787Z,1008.69
2022-10-06T14:03:03.867Z,1008.66
2022-10-06T14:04:58.633Z,1008.63
2022-10-06T14:05:54.636Z,1008.66
2022-10-06T14:06:54.626Z,1008.68
2022-10-06T14:07:54.612Z,1008.68
2022-10-06T14:08:54.601Z,1008.64
2022-10-06T14:10:54.586Z,1008.67
2022-10-06T14:11:54.561Z,1008.58
2022-10-06T14:12:54.551Z,1008.49